Time;durP1;ratioP1;P1;durP2;ratioP2;P2;SDS_P1;SDS_P2;PMS_P1;PMS_P2;Temp;Humidity;BMP_temperature;BMP_pressure;BME280_temperature;BME280_humidity;BME280_pressure;Samples;Min_cycle;Max_cycle;Signal;HPM_P1;HPM_P2
2021/06/01 00:00:13;;;;;;;37.67;18.67;;;;;;;12.96;82.27;100835.63;6039081;23;20007;-86
2021/06/01 00:02:39;;;;;;;36.63;17.83;;;;;;;12.94;82.08;100823.38;6013539;23;20010;-86
2021/06/01 00:05:07;;;;;;;39.13;18.17;;;;;;;12.95;82.41;100833.13;6015459;23;20630;-85
2021/06/01 00:07:32;;;;;;;39.97;20.70;;;;;;;12.91;82.70;100832.69;6013780;23;20049;-83
2021/06/01 00:09:58;;;;;;;42.03;17.75;;;;;;;12.96;82.59;100842.91;6014705;23;20011;-85
2021/06/01 00:12:23;;;;;;;41.78;18.92;;;;;;;12.93;82.74;100843.28;6017157;23;20066;-86
2021/06/01 00:14:49;;;;;;;41.75;23.20;;;;;;;12.88;82.53;100824.94;6014912;23;20011;-84
2021/06/01 00:17:14;;;;;;;39.22;17.67;;;;;;;12.87;82.78;100830.56;6016356;23;20429;-86
2021/06/01 00:19:40;;;;;;;42.00;19.80;;;;;;;12.87;83.41;100819.75;6015217;23;20026;-86
2021/06/01 00:22:05;;;;;;;43.17;18.80;;;;;;;12.81;83.01;100815.09;6040330;23;20002;-87
2021/06/01 00:24:31;;;;;;;39.13;17.20;;;;;;;12.83;83.41;100816.56;6017638;23;20013;-86
2021/06/01 00:26:56;;;;;;;36.03;20.35;;;;;;;12.83;83.62;100804.97;6016290;23;20403;-86
2021/06/01 00:29:22;;;;;;;38.42;17.52;;;;;;;12.84;83.46;100815.56;6015615;23;20019;-86
2021/06/01 00:31:47;;;;;;;34.70;17.20;;;;;;;12.83;83.88;100810.34;6016255;23;20006;-85
2021/06/01 00:34:13;;;;;;;41.58;17.13;;;;;;;12.83;84.04;100811.19;6014696;23;20344;-85
2021/06/01 00:36:39;;;;;;;34.97;18.60;;;;;;;12.83;84.42;100811.19;6015145;23;20049;-84
2021/06/01 00:39:05;;;;;;;45.35;18.90;;;;;;;12.78;84.63;100813.63;6038318;23;20089;-85
2021/06/01 00:41:32;;;;;;;36.28;19.13;;;;;;;12.77;84.79;100807.38;6015784;23;20006;-84
2021/06/01 00:43:58;;;;;;;37.60;16.90;;;;;;;12.66;84.69;100805.19;6041828;23;20007;-82
2021/06/01 00:46:23;;;;;;;40.53;17.95;;;;;;;12.70;84.92;100814.59;6015094;23;20029;-83
2021/06/01 00:48:49;;;;;;;38.45;18.52;;;;;;;12.70;85.19;100811.03;6016032;23;20337;-84
2021/06/01 00:51:14;;;;;;;43.78;18.75;;;;;;;12.66;85.02;100802.47;6014742;23;20074;-85
2021/06/01 00:53:40;;;;;;;38.45;16.27;;;;;;;12.61;85.60;100799.50;6063070;23;20018;-83
2021/06/01 00:56:06;;;;;;;43.08;21.10;;;;;;;12.62;85.68;100809.28;6014816;23;20043;-86
2021/06/01 00:58:32;;;;;;;42.85;19.73;;;;;;;12.67;85.69;100806.84;6038051;23;20318;-84
2021/06/01 01:03:33;;;;;;;33.72;16.10;;;;;;;12.61;85.98;100802.22;6041818;23;20011;-84
2021/06/01 01:06:05;;;;;;;36.67;17.95;;;;;;;12.59;85.90;100814.22;6017129;23;20353;-84
2021/06/01 01:08:54;;;;;;;40.35;21.55;;;;;;;12.50;86.06;100795.44;6012891;23;20011;-84
2021/06/01 01:11:40;;;;;;;37.08;17.67;;;;;;;12.62;86.07;100817.38;6019898;23;20009;-86
2021/06/01 01:14:17;;;;;;;37.03;16.58;;;;;;;12.58;86.26;100812.53;6066639;23;20047;-85
2021/06/01 01:16:51;;;;;;;43.65;20.13;;;;;;;12.52;86.34;100809.56;6039009;23;20105;-85
2021/06/01 01:19:31;;;;;;;44.80;18.77;;;;;;;12.52;86.74;100806.03;6015967;23;20350;-85
2021/06/01 01:21:57;;;;;;;40.00;18.10;;;;;;;12.59;87.00;100811.50;6015087;23;20397;-85
2021/06/01 01:24:35;;;;;;;39.22;17.83;;;;;;;12.64;86.53;100817.19;6016907;23;20015;-85
2021/06/01 01:27:10;;;;;;;34.00;17.77;;;;;;;12.58;86.55;100813.38;6040218;23;20356;-84
2021/06/01 01:29:43;;;;;;;33.40;16.35;;;;;;;12.60;86.43;100815.91;6039240;23;20029;-84
2021/06/01 01:32:38;;;;;;;36.58;19.42;;;;;;;12.61;86.47;100814.88;6015558;23;20006;-85
2021/06/01 01:35:05;;;;;;;44.00;18.92;;;;;;;12.56;86.35;100817.28;6014957;23;20031;-84
2021/06/01 01:37:33;;;;;;;35.50;17.63;;;;;;;12.55;86.69;100821.84;6014732;23;20017;-84
2021/06/01 01:39:59;;;;;;;40.78;18.52;;;;;;;12.49;86.78;100819.88;6014808;23;20057;-84
2021/06/01 01:42:41;;;;;;;32.75;17.15;;;;;;;12.50;86.55;100821.56;6013992;23;20055;-83
2021/06/01 01:45:11;;;;;;;40.75;18.25;;;;;;;12.46;86.80;100809.47;6016230;23;20010;-84
2021/06/01 01:50:11;;;;;;;32.67;15.63;;;;;;;12.44;87.07;100800.75;6041749;23;20007;-84
2021/06/01 01:52:38;;;;;;;32.80;17.25;;;;;;;12.49;87.16;100819.88;6016136;23;20013;-84
2021/06/01 01:55:09;;;;;;;35.95;18.02;;;;;;;12.48;87.22;100802.88;6015587;23;20011;-86
2021/06/01 01:57:36;;;;;;;39.03;18.13;;;;;;;12.49;86.96;100806.38;6016866;23;20030;-83
2021/06/01 02:00:06;;;;;;;35.28;17.00;;;;;;;12.46;86.95;100813.03;6016275;23;20664;-83
2021/06/01 02:02:32;;;;;;;43.13;18.98;;;;;;;12.44;87.08;100811.53;6015912;23;20027;-86
2021/06/01 02:04:57;;;;;;;32.50;17.55;;;;;;;12.40;86.85;100804.84;6040804;23;20007;-84
2021/06/01 02:07:23;;;;;;;35.55;17.23;;;;;;;12.44;86.96;100819.63;6014254;23;20019;-84
2021/06/01 02:09:48;;;;;;;34.00;17.58;;;;;;;12.46;87.02;100814.88;6014214;23;20011;-86
2021/06/01 02:12:15;;;;;;;37.40;18.45;;;;;;;12.50;87.36;100825.09;6013714;23;20010;-82
2021/06/01 02:14:40;;;;;;;33.58;18.33;;;;;;;12.48;87.12;100815.53;6015963;23;20014;-86
2021/06/01 02:17:06;;;;;;;32.92;16.60;;;;;;;12.59;87.19;100820.44;6015895;23;20018;-83
2021/06/01 02:19:31;;;;;;;34.13;15.82;;;;;;;12.54;86.75;100815.63;6015841;23;20098;-86
2021/06/01 02:22:20;;;;;;;33.53;17.92;;;;;;;12.55;86.61;100813.75;6014980;23;20007;-86
2021/06/01 02:24:49;;;;;;;35.22;16.40;;;;;;;12.55;86.62;100824.53;6017988;23;20730;-85
2021/06/01 02:27:40;;;;;;;34.63;19.33;;;;;;;12.50;86.64;100819.69;6016129;23;20007;-84
2021/06/01 02:30:09;;;;;;;37.15;17.90;;;;;;;12.53;86.86;100821.19;6040481;23;19999;-84
2021/06/01 02:32:40;;;;;;;35.63;17.50;;;;;;;12.51;87.29;100821.38;6041048;23;20006;-84
2021/06/01 02:35:09;;;;;;;40.17;19.67;;;;;;;12.42;87.31;100814.41;6040731;23;20014;-84
2021/06/01 02:37:41;;;;;;;35.97;16.92;;;;;;;12.47;87.31;100820.09;6017065;23;20014;-82
2021/06/01 02:40:12;;;;;;;36.47;18.42;;;;;;;12.45;87.50;100810.50;6016991;23;20377;-86
2021/06/01 02:42:39;;;;;;;42.95;17.52;;;;;;;12.51;87.39;100813.28;6017662;23;20739;-86
2021/06/01 02:45:05;;;;;;;39.33;19.50;;;;;;;12.41;87.32;100806.50;6017528;23;19999;-83
2021/06/01 02:47:31;;;;;;;38.20;17.13;;;;;;;12.45;87.35;100815.91;6017887;23;20532;-81
2021/06/01 02:49:57;;;;;;;42.55;20.77;;;;;;;12.46;87.70;100823.81;6040485;23;20418;-82
2021/06/01 02:52:22;;;;;;;36.25;18.85;;;;;;;12.44;87.63;100814.25;6017121;23;20041;-86
2021/06/01 02:54:49;;;;;;;37.42;17.33;;;;;;;12.50;87.63;100821.56;6017657;23;20089;-84
2021/06/01 02:57:17;;;;;;;48.70;19.77;;;;;;;12.44;87.85;100816.94;6017662;23;20010;-85
2021/06/01 02:59:43;;;;;;;36.70;17.52;;;;;;;12.37;87.57;100802.50;6040923;23;20159;-84
2021/06/01 03:02:09;;;;;;;41.33;20.08;;;;;;;12.39;88.40;100817.47;6017321;23;20480;-84
2021/06/01 03:04:34;;;;;;;34.00;18.30;;;;;;;12.39;87.92;100822.88;6040460;23;20006;-85
2021/06/01 03:07:02;;;;;;;34.22;18.63;;;;;;;12.41;88.46;100819.97;6039568;23;20346;-82
2021/06/01 03:09:27;;;;;;;40.92;17.98;;;;;;;12.37;88.14;100814.13;6015227;23;20359;-83
2021/06/01 03:11:53;;;;;;;37.63;17.40;;;;;;;12.13;88.48;100779.38;6016280;23;20097;-85
2021/06/01 03:14:20;;;;;;;44.13;18.85;;;;;;;12.31;88.66;100812.19;6017371;23;20356;-86
2021/06/01 03:16:45;;;;;;;40.33;19.33;;;;;;;12.36;88.45;100814.31;6040410;23;20344;-83
2021/06/01 03:19:11;;;;;;;42.22;19.77;;;;;;;12.33;88.52;100820.91;6015431;23;20066;-84
2021/06/01 03:21:37;;;;;;;41.75;19.65;;;;;;;12.28;88.67;100809.88;6039707;23;20094;-84
2021/06/01 03:24:03;;;;;;;42.38;20.33;;;;;;;12.30;88.85;100819.44;6040525;23;20016;-83
2021/06/01 03:26:29;;;;;;;39.63;18.50;;;;;;;12.27;89.00;100822.47;6016186;23;20397;-84
2021/06/01 03:28:54;;;;;;;37.70;19.15;;;;;;;12.27;89.13;100827.88;6013568;23;20448;-82
2021/06/01 03:31:20;;;;;;;42.63;19.60;;;;;;;12.29;89.36;100825.00;6015578;23;20003;-86
2021/06/01 03:33:45;;;;;;;44.33;19.77;;;;;;;12.32;89.31;100820.06;6014735;23;20110;-84
2021/06/01 03:36:11;;;;;;;40.22;18.50;;;;;;;12.29;89.55;100815.06;6015626;23;20381;-83
2021/06/01 03:38:37;;;;;;;47.45;21.20;;;;;;;12.32;89.26;100822.78;6012988;23;20086;-83
2021/06/01 03:41:06;;;;;;;45.40;19.00;;;;;;;12.28;89.72;100824.19;6038868;23;20090;-84
2021/06/01 03:43:32;;;;;;;41.13;20.38;;;;;;;12.24;89.50;100820.16;6014431;23;20102;-85
2021/06/01 03:45:57;;;;;;;36.55;19.02;;;;;;;12.24;89.44;100824.72;6014655;23;20022;-85
2021/06/01 03:48:23;;;;;;;38.78;18.88;;;;;;;12.24;89.52;100833.66;6038803;23;20010;-84
2021/06/01 03:50:48;;;;;;;36.78;19.73;;;;;;;12.20;89.61;100832.34;6038710;23;20014;-85
2021/06/01 03:53:13;;;;;;;43.80;19.63;;;;;;;12.09;89.87;100827.41;6038144;23;20011;-86
2021/06/01 03:55:39;;;;;;;37.78;18.15;;;;;;;12.11;89.30;100836.13;6040313;23;20565;-84
2021/06/01 03:58:04;;;;;;;38.65;16.23;;;;;;;12.07;89.90;100837.53;6040177;23;20027;-85
2021/06/01 04:00:30;;;;;;;37.33;15.98;;;;;;;12.12;90.22;100832.44;6016435;23;20010;-82
2021/06/01 04:02:57;;;;;;;25.10;13.60;;;;;;;12.07;89.81;100830.28;6016325;23;20093;-85
2021/06/01 04:05:23;;;;;;;27.13;14.02;;;;;;;12.07;nan;100818.69;6016909;23;20022;-86
2021/06/01 04:07:48;;;;;;;25.33;12.35;;;;;;;11.98;89.03;100830.53;6016912;23;20007;-85
2021/06/01 04:10:15;;;;;;;21.13;11.57;;;;;;;11.94;89.15;100827.38;6016612;23;20010;-85
2021/06/01 04:12:41;;;;;;;20.73;10.52;;;;;;;11.94;88.93;100832.78;6016918;23;20034;-85
2021/06/01 04:15:07;;;;;;;20.63;10.90;;;;;;;11.84;89.13;100827.59;6019182;23;20859;-84
2021/06/01 04:17:32;;;;;;;19.73;11.27;;;;;;;11.82;89.00;100832.34;6042809;23;20006;-82
2021/06/01 04:19:58;;;;;;;17.17;10.50;;;;;;;11.87;89.18;100835.34;6016901;23;20010;-84
2021/06/01 04:22:23;;;;;;;21.92;11.57;;;;;;;11.88;89.71;100815.50;6018931;23;20018;-83
2021/06/01 04:24:49;;;;;;;23.90;10.68;;;;;;;12.02;89.86;100829.19;6040346;23;20003;-85
2021/06/01 04:27:14;;;;;;;16.83;9.32;;;;;;;12.06;89.57;100838.56;6038565;23;20034;-83
2021/06/01 04:29:40;;;;;;;20.65;9.88;;;;;;;12.08;89.00;100839.22;6017020;23;20097;-84
2021/06/01 04:32:05;;;;;;;17.27;9.65;;;;;;;12.07;89.13;100829.47;6038808;23;20031;-84
2021/06/01 04:34:31;;;;;;;19.50;10.00;;;;;;;12.09;89.03;100835.47;6015757;23;20504;-84
2021/06/01 04:36:56;;;;;;;17.08;9.35;;;;;;;12.07;88.49;100832.16;6015749;23;20747;-83
2021/06/01 04:39:22;;;;;;;16.95;9.07;;;;;;;12.08;88.64;100839.22;6039778;23;20141;-83
2021/06/01 04:41:48;;;;;;;16.75;8.65;;;;;;;12.05;88.44;100840.41;6016399;23;20089;-82
2021/06/01 04:44:13;;;;;;;17.63;9.10;;;;;;;12.06;88.77;100841.25;6043504;23;20006;-84
2021/06/01 04:46:39;;;;;;;22.75;9.85;;;;;;;12.08;89.03;100845.44;6041108;23;20388;-84
2021/06/01 04:49:04;;;;;;;17.92;9.10;;;;;;;12.12;88.39;100847.75;6015605;23;20003;-83
2021/06/01 04:51:30;;;;;;;16.17;8.90;;;;;;;12.07;88.96;100853.72;6016304;23;20341;-83
2021/06/01 04:53:57;;;;;;;19.45;9.60;;;;;;;12.08;88.70;100860.78;6016808;23;20457;-85
2021/06/01 04:56:24;;;;;;;14.82;8.90;;;;;;;12.03;89.17;100858.63;6041525;23;20007;-83
2021/06/01 04:58:49;;;;;;;17.92;9.02;;;;;;;12.04;89.17;100870.22;6017020;23;20018;-86
2021/06/01 05:01:15;;;;;;;12.98;7.82;;;;;;;12.00;88.49;100853.59;6017705;23;20066;-83
2021/06/01 05:03:41;;;;;;;11.98;6.05;;;;;;;11.99;88.69;100872.66;6017621;23;20062;-84
2021/06/01 05:06:07;;;;;;;8.93;4.90;;;;;;;11.95;88.22;100858.69;6017061;23;20077;-83
2021/06/01 05:08:33;;;;;;;11.10;4.65;;;;;;;11.96;88.26;100862.22;6018258;23;19999;-85
2021/06/01 05:10:59;;;;;;;7.30;4.20;;;;;;;11.95;88.38;100869.47;6017402;23;20002;-84
2021/06/01 05:13:24;;;;;;;9.48;4.32;;;;;;;11.91;87.46;100854.72;6017189;23;20336;-85
2021/06/01 05:15:51;;;;;;;8.70;3.78;;;;;;;11.94;87.18;100864.28;6016690;23;20007;-81
2021/06/01 05:18:17;;;;;;;7.60;3.75;;;;;;;11.96;86.95;100862.22;6017109;23;20017;-86
2021/06/01 05:20:42;;;;;;;6.82;3.90;;;;;;;12.00;87.61;100874.31;6017135;23;20021;-85
2021/06/01 05:23:09;;;;;;;5.30;3.22;;;;;;;12.03;87.14;100876.66;6016688;23;20015;-85
2021/06/01 05:25:34;;;;;;;5.05;3.38;;;;;;;12.04;87.36;100870.22;6041046;23;20034;-84
2021/06/01 05:28:00;;;;;;;6.35;3.10;;;;;;;12.02;87.22;100877.69;6014728;23;20034;-83
2021/06/01 05:30:38;;;;;;;6.57;3.25;;;;;;;12.03;86.61;100876.66;6040043;23;20042;-85
2021/06/01 05:33:19;;;;;;;6.15;3.20;;;;;;;12.06;86.64;100885.19;6043447;23;20014;-84
2021/06/01 05:35:55;;;;;;;6.43;3.70;;;;;;;12.01;86.44;100901.09;6043875;23;20445;-86
2021/06/01 05:38:29;;;;;;;5.32;3.15;;;;;;;11.86;87.47;100884.88;6018215;23;20009;-83
2021/06/01 05:40:55;;;;;;;6.28;2.97;;;;;;;11.88;87.61;100887.38;6017740;23;20105;-85
2021/06/01 05:43:21;;;;;;;6.13;3.17;;;;;;;11.91;88.22;100887.03;6015862;23;20393;-82
2021/06/01 05:45:46;;;;;;;4.03;2.55;;;;;;;11.82;88.10;100885.38;6016784;23;20007;-84
2021/06/01 05:48:12;;;;;;;6.10;2.78;;;;;;;11.84;88.29;100886.06;6039301;23;20094;-82
2021/06/01 05:50:39;;;;;;;4.30;2.20;;;;;;;11.80;87.96;100882.88;6016715;23;20007;-85
2021/06/01 05:53:06;;;;;;;3.92;2.10;;;;;;;11.72;88.26;100871.31;6016537;23;20098;-84
2021/06/01 05:55:32;;;;;;;4.18;2.28;;;;;;;11.75;87.95;100884.41;6016621;23;20007;-84
2021/06/01 05:57:58;;;;;;;3.83;1.70;;;;;;;11.68;87.43;100872.72;6016096;23;20094;-85
2021/06/01 06:00:25;;;;;;;4.35;1.80;;;;;;;11.68;87.55;100865.47;6040199;23;20003;-84
2021/06/01 06:02:50;;;;;;;3.35;1.63;;;;;;;11.68;87.41;100880.78;6017052;23;20018;-86
2021/06/01 06:05:16;;;;;;;3.92;1.38;;;;;;;11.75;86.77;100893.38;6016913;23;20007;-84
2021/06/01 06:07:42;;;;;;;2.90;1.50;;;;;;;11.73;87.06;100879.22;6039749;23;20011;-85
2021/06/01 06:10:08;;;;;;;4.28;1.58;;;;;;;11.79;86.63;100878.50;6016213;23;20010;-84
2021/06/01 06:12:34;;;;;;;3.10;1.65;;;;;;;11.92;86.48;100893.25;6016020;23;20360;-83
2021/06/01 06:15:01;;;;;;;3.28;1.40;;;;;;;11.89;85.68;100889.06;6016358;23;20019;-84
2021/06/01 06:17:40;;;;;;;3.42;1.50;;;;;;;11.90;86.13;100896.13;6016736;23;20349;-82
2021/06/01 06:20:06;;;;;;;2.72;1.50;;;;;;;11.85;86.35;100893.97;6041260;23;20081;-85
2021/06/01 06:22:31;;;;;;;2.45;1.40;;;;;;;11.91;86.64;100897.81;6017400;23;20470;-84
2021/06/01 06:24:57;;;;;;;1.65;1.27;;;;;;;11.82;86.56;100888.91;6040764;23;20014;-86
2021/06/01 06:27:22;;;;;;;3.60;1.60;;;;;;;11.86;86.41;100913.69;6016165;23;20086;-82
2021/06/01 06:29:48;;;;;;;2.58;1.50;;;;;;;11.73;86.83;100890.00;6016249;23;20015;-84
2021/06/01 06:32:13;;;;;;;5.13;1.70;;;;;;;11.74;87.02;100883.59;6017266;23;20031;-83
2021/06/01 06:34:39;;;;;;;3.67;1.50;;;;;;;11.80;87.18;100907.13;6016564;23;20007;-86
2021/06/01 06:37:05;;;;;;;3.13;1.20;;;;;;;11.82;87.18;100915.03;6017478;23;20017;-85
2021/06/01 06:39:32;;;;;;;2.70;1.20;;;;;;;11.89;87.04;100918.72;6016544;23;20341;-85
2021/06/01 06:41:58;;;;;;;2.95;1.20;;;;;;;11.92;87.17;100912.13;6041888;23;20089;-83
2021/06/01 06:44:23;;;;;;;1.90;1.27;;;;;;;11.81;86.85;100892.63;6038966;23;20006;-84
2021/06/01 06:49:41;;;;;;;2.20;1.33;;;;;;;11.95;87.00;100900.97;6016766;23;20066;-82
2021/06/01 06:52:09;;;;;;;1.75;1.20;;;;;;;12.00;87.31;100914.75;6015855;23;20789;-82
2021/06/01 06:54:34;;;;;;;3.95;1.40;;;;;;;11.94;87.46;100910.94;6016233;23;20003;-85
2021/06/01 06:57:00;;;;;;;2.08;1.30;;;;;;;11.98;87.46;100908.69;6016931;23;20452;-82
2021/06/01 06:59:25;;;;;;;8.77;1.48;;;;;;;11.90;87.38;100908.75;6013754;23;20360;-84
2021/06/01 07:01:51;;;;;;;3.13;1.50;;;;;;;11.88;87.53;100908.94;6038588;23;20044;-85
2021/06/01 07:04:16;;;;;;;5.43;1.50;;;;;;;11.99;87.49;100931.94;6014733;23;20011;-84
2021/06/01 07:06:46;;;;;;;4.13;1.20;;;;;;;12.02;87.88;100936.97;6014645;23;20017;-85
2021/06/01 07:09:12;;;;;;;2.42;1.20;;;;;;;12.00;87.53;100934.44;6015631;23;20010;-84
2021/06/01 07:11:37;;;;;;;2.70;1.58;;;;;;;12.04;87.68;100946.56;6014555;23;20007;-83
2021/06/01 07:14:09;;;;;;;1.63;1.10;;;;;;;12.03;87.58;100944.84;6038825;23;20541;-85
2021/06/01 07:16:34;;;;;;;4.53;1.23;;;;;;;11.98;87.44;100941.03;6035944;23;20018;-84
2021/06/01 07:19:00;;;;;;;3.58;1.02;;;;;;;11.85;87.66;100925.44;5932741;23;20023;-86
2021/06/01 07:21:25;;;;;;;3.90;1.02;;;;;;;11.93;87.76;100941.56;6026187;23;20003;-85
2021/06/01 07:23:51;;;;;;;4.95;1.65;;;;;;;11.95;87.88;100944.09;6038238;23;20385;-83
2021/06/01 07:26:16;;;;;;;6.35;1.20;;;;;;;11.92;87.64;100947.16;6017452;23;20007;-85
2021/06/01 07:28:42;;;;;;;3.55;1.00;;;;;;;11.91;87.96;100940.06;6040664;23;20089;-83
2021/06/01 07:31:12;;;;;;;2.10;1.55;;;;;;;11.99;87.95;100948.13;6042238;23;20006;-84
2021/06/01 07:33:38;;;;;;;2.58;1.00;;;;;;;12.01;87.66;100946.91;6041894;23;20089;-85
2021/06/01 07:36:04;;;;;;;2.30;0.88;;;;;;;11.97;87.26;100947.47;6017766;23;20389;-84
2021/06/01 07:38:29;;;;;;;3.20;1.08;;;;;;;11.86;87.13;100929.84;6016234;23;20030;-84
2021/06/01 07:40:55;;;;;;;0.82;0.70;;;;;;;11.94;86.99;100959.44;6018474;23;20118;-85
2021/06/01 07:43:22;;;;;;;1.35;0.70;;;;;;;11.86;87.19;100954.09;6019183;23;20030;-85
2021/06/01 07:45:47;;;;;;;1.30;0.85;;;;;;;11.86;87.09;100962.19;6017896;23;20381;-85
2021/06/01 07:48:12;;;;;;;1.45;0.70;;;;;;;11.84;86.96;100959.63;6042598;23;20543;-84
2021/06/01 07:50:38;;;;;;;1.10;0.80;;;;;;;11.81;86.59;100957.28;6017728;23;20011;-84
2021/06/01 07:53:03;;;;;;;1.08;0.63;;;;;;;11.78;86.54;100959.53;6018119;23;20021;-85
2021/06/01 07:55:29;;;;;;;0.88;0.60;;;;;;;11.77;86.83;100960.50;6018256;23;20025;-83
2021/06/01 07:57:55;;;;;;;0.63;0.60;;;;;;;11.74;86.87;100959.03;6042600;23;20037;-84
2021/06/01 08:00:25;;;;;;;0.68;0.52;;;;;;;11.72;86.96;100955.66;6020406;23;20006;-85
2021/06/01 08:02:51;;;;;;;0.70;0.60;;;;;;;11.67;86.73;100963.47;6044446;23;19999;-83
2021/06/01 08:05:18;;;;;;;0.63;0.55;;;;;;;11.59;87.19;100950.88;6019000;23;20002;-84
2021/06/01 08:07:43;;;;;;;1.55;1.00;;;;;;;11.60;86.96;100955.25;6013021;23;20165;-84
2021/06/01 08:10:09;;;;;;;1.08;0.60;;;;;;;11.60;87.05;100955.25;6038103;23;20031;-84
2021/06/01 08:12:35;;;;;;;0.50;0.50;;;;;;;11.64;86.84;100958.41;6014866;23;20349;-85
2021/06/01 08:15:01;;;;;;;0.75;0.60;;;;;;;11.67;86.51;100960.78;6039539;23;20432;-84
2021/06/01 08:17:27;;;;;;;0.60;0.60;;;;;;;11.71;86.29;100963.94;6016723;23;20010;-84
2021/06/01 08:19:56;;;;;;;0.70;0.50;;;;;;;11.66;86.08;100941.06;6039520;23;20007;-84
2021/06/01 08:24:47;;;;;;;2.03;0.60;;;;;;;11.77;86.01;100953.28;6040138;23;20013;-83
2021/06/01 08:27:12;;;;;;;0.82;0.60;;;;;;;11.81;85.75;100956.47;6045375;23;20049;-85
2021/06/01 08:29:38;;;;;;;3.17;0.55;;;;;;;11.78;85.76;100946.88;6016631;23;20046;-84
2021/06/01 08:32:04;;;;;;;2.08;0.60;;;;;;;11.82;85.47;100942.78;6016644;23;20043;-83
2021/06/01 08:34:30;;;;;;;1.08;0.57;;;;;;;11.85;85.54;100942.47;6041310;23;20013;-85
2021/06/01 08:36:55;;;;;;;0.95;0.70;;;;;;;11.91;85.45;100935.53;6017182;23;20006;-85
2021/06/01 08:39:26;;;;;;;1.83;0.80;;;;;;;12.06;85.99;100946.34;6038305;23;20011;-86
2021/06/01 08:41:52;;;;;;;4.20;0.90;;;;;;;12.10;85.68;100939.59;6016730;23;20344;-83
2021/06/01 08:44:19;;;;;;;1.13;0.70;;;;;;;12.12;85.86;100937.56;6015045;23;20033;-84
2021/06/01 08:46:49;;;;;;;3.45;1.00;;;;;;;12.21;85.78;100935.63;6015384;23;20043;-84
2021/06/01 08:49:15;;;;;;;2.13;0.95;;;;;;;12.30;85.52;100954.25;6015276;23;20437;-84
2021/06/01 08:51:41;;;;;;;1.08;0.77;;;;;;;12.34;85.56;100948.50;6015052;23;20007;-84
2021/06/01 08:54:06;;;;;;;1.20;0.75;;;;;;;12.41;85.13;100947.59;6015322;23;20006;-83
2021/06/01 08:56:32;;;;;;;1.00;0.77;;;;;;;12.52;85.13;100954.38;6014635;23;20026;-83
2021/06/01 08:58:57;;;;;;;0.80;0.63;;;;;;;12.55;84.92;100943.22;6019723;23;20043;-84
2021/06/01 09:01:23;;;;;;;3.20;1.00;;;;;;;12.66;84.95;100960.81;6044037;23;20011;-84
2021/06/01 09:03:53;;;;;;;2.08;0.70;;;;;;;12.67;84.96;100957.91;6019519;23;20021;-84
2021/06/01 09:22:32;;;;;;;1.85;0.90;;;;;;;12.91;84.48;100946.03;6048210;23;20022;-84
2021/06/01 09:25:16;;;;;;;1.20;0.90;;;;;;;12.90;84.58;100951.63;6045451;23;20440;-83
2021/06/01 09:27:52;;;;;;;1.63;1.00;;;;;;;13.00;84.65;100952.16;6044550;23;20013;-84
2021/06/01 09:30:51;;;;;;;1.48;1.05;;;;;;;13.00;84.64;100954.88;6021311;23;20007;-85
2021/06/01 09:33:16;;;;;;;5.35;1.30;;;;;;;13.02;84.56;100951.97;6020245;23;20002;-83
2021/06/01 09:35:56;;;;;;;2.72;1.30;;;;;;;13.05;84.67;100941.66;6044495;23;20017;-85
2021/06/01 09:38:22;;;;;;;1.85;1.30;;;;;;;13.17;84.72;100944.69;6046493;23;20015;-84
2021/06/01 09:40:49;;;;;;;2.45;1.08;;;;;;;13.18;84.11;100943.69;6021660;23;20006;-84
2021/06/01 09:43:16;;;;;;;1.20;0.93;;;;;;;13.12;83.72;100925.53;6045381;23;20085;-84
2021/06/01 09:45:44;;;;;;;2.45;1.10;;;;;;;13.22;83.63;100927.94;6044288;23;20132;-84
2021/06/01 09:48:11;;;;;;;1.42;0.95;;;;;;;13.36;83.66;100940.59;6043092;23;20013;-84
2021/06/01 09:53:22;;;;;;;1.35;0.80;;;;;;;13.37;82.54;100939.59;6045843;23;20085;-85
2021/06/01 09:55:48;;;;;;;2.30;0.90;;;;;;;13.37;82.26;100936.88;6021123;23;20003;-83
2021/06/01 09:58:23;;;;;;;0.75;0.70;;;;;;;13.62;81.23;100943.59;6043711;23;20521;-84
2021/06/01 10:00:48;;;;;;;0.75;0.73;;;;;;;13.81;80.63;100933.19;6043578;23;20014;-83
2021/06/01 10:03:19;;;;;;;0.95;0.68;;;;;;;14.02;80.66;100937.75;6044005;23;20003;-84
2021/06/01 10:05:48;;;;;;;2.40;0.90;;;;;;;14.23;80.64;100945.84;6045699;23;20003;-84
2021/06/01 10:08:15;;;;;;;0.98;0.70;;;;;;;14.27;79.61;100938.19;6018800;23;20011;-84
2021/06/01 10:10:43;;;;;;;1.40;0.90;;;;;;;14.28;79.52;100935.28;6044744;23;20034;-83
2021/06/01 10:13:09;;;;;;;3.55;1.25;;;;;;;14.27;79.72;100940.91;6043787;23;20039;-85
2021/06/01 10:15:36;;;;;;;2.17;1.00;;;;;;;14.19;79.93;100946.44;6042540;23;20050;-84
2021/06/01 10:18:04;;;;;;;1.55;1.08;;;;;;;14.06;79.74;100934.47;6043522;23;20240;-85
2021/06/01 10:20:32;;;;;;;1.50;1.20;;;;;;;14.12;79.49;100929.31;6046405;23;20045;-85
2021/06/01 10:22:58;;;;;;;2.35;1.25;;;;;;;14.11;80.14;100947.41;6043302;23;20026;-84
2021/06/01 10:25:23;;;;;;;1.63;1.20;;;;;;;14.07;80.26;100940.72;6045229;23;20002;-84
2021/06/01 10:27:50;;;;;;;2.45;1.48;;;;;;;14.02;79.92;100935.88;6041718;23;20014;-84
2021/06/01 10:30:17;;;;;;;3.50;1.25;;;;;;;13.94;80.16;100925.22;6041971;23;20006;-85
2021/06/01 10:32:48;;;;;;;3.28;1.50;;;;;;;14.00;80.92;100932.56;6018202;23;20007;-85
2021/06/01 10:35:18;;;;;;;4.22;1.80;;;;;;;14.01;81.18;100931.53;6017631;23;20010;-86
2021/06/01 10:44:15;;;;;;;3.80;2.07;;;;;;;14.33;80.03;100918.47;6048566;23;20062;-84
2021/06/01 10:52:11;;;;;;;6.88;3.10;;;;;;;14.34;80.27;100930.13;6043103;23;20018;-84
2021/06/01 10:54:49;;;;;;;6.45;2.78;;;;;;;14.36;80.00;100928.88;6040903;23;20014;-84
2021/06/01 10:57:16;;;;;;;4.78;2.88;;;;;;;14.36;79.74;100928.88;6041018;23;20006;-84
2021/06/01 11:02:13;;;;;;;5.35;2.88;;;;;;;14.46;79.73;100925.84;6065672;23;20015;-83
2021/06/01 11:04:58;;;;;;;6.45;3.08;;;;;;;14.30;79.85;100908.03;6040280;23;20010;-86
2021/06/01 11:07:27;;;;;;;5.15;3.20;;;;;;;14.34;79.88;100928.25;6066999;23;20022;-85
2021/06/01 11:09:52;;;;;;;4.95;2.97;;;;;;;14.22;79.45;100910.91;6016993;23;20010;-82
2021/06/01 11:12:18;;;;;;;6.70;3.42;;;;;;;14.20;79.83;100918.38;6042433;23;20006;-85
2021/06/01 11:15:00;;;;;;;5.80;3.25;;;;;;;14.22;80.29;100913.59;6065201;23;20011;-83
2021/06/01 11:17:34;;;;;;;6.55;3.10;;;;;;;14.36;80.24;100930.75;6040590;23;20011;-84
2021/06/01 11:20:19;;;;;;;7.38;3.55;;;;;;;14.49;80.14;100931.69;6016085;23;20022;-83
2021/06/01 11:23:03;;;;;;;5.93;3.38;;;;;;;14.77;79.51;100930.03;6043288;23;20015;-84
2021/06/01 11:33:32;;;;;;;7.28;3.55;;;;;;;15.29;76.23;100920.47;6041991;23;20043;-83
2021/06/01 11:36:04;;;;;;;6.07;3.80;;;;;;;15.29;76.48;100913.19;6038374;23;19999;-84
2021/06/01 11:41:24;;;;;;;3.97;2.78;;;;;;;15.24;76.29;100910.28;6063546;23;20011;-84
2021/06/01 11:43:51;;;;;;;5.22;2.67;;;;;;;15.09;76.50;100923.97;6041355;23;20007;-85
2021/06/01 11:51:16;;;;;;;4.13;2.38;;;;;;;14.38;78.82;100920.59;6037229;23;20026;-83
2021/06/01 11:54:05;;;;;;;3.75;2.78;;;;;;;14.45;79.36;100932.31;6013338;23;20018;-84
2021/06/01 11:56:51;;;;;;;4.95;2.85;;;;;;;14.64;79.01;100939.75;6014458;23;20433;-84
2021/06/01 12:02:07;;;;;;;5.07;2.60;;;;;;;15.56;77.12;100924.13;6041269;23;20070;-84
2021/06/01 12:04:37;;;;;;;4.93;2.67;;;;;;;16.02;75.78;100921.50;6014707;23;20011;-84
2021/06/01 12:13:11;;;;;;;3.28;2.20;;;;;;;16.30;73.26;100911.47;6044531;23;20021;-85
2021/06/01 12:18:38;;;;;;;4.07;2.40;;;;;;;16.17;73.22;100901.50;5976324;24;20012;-84
2021/06/01 12:21:12;;;;;;;4.13;2.97;;;;;;;16.10;72.80;100901.50;5955609;24;20008;-85
2021/06/01 12:23:44;;;;;;;3.28;2.30;;;;;;;16.17;72.79;100905.03;5977220;23;20007;-84
2021/06/01 12:31:48;;;;;;;6.75;3.03;;;;;;;17.56;69.87;100895.63;6046792;23;20021;-80
2021/06/01 12:34:17;;;;;;;4.53;2.90;;;;;;;17.55;68.59;100887.72;6069468;23;20003;-80
2021/06/01 12:42:23;;;;;;;4.68;2.65;;;;;;;17.52;68.70;100888.16;6044264;23;20402;-84
2021/06/01 12:44:50;;;;;;;5.03;3.17;;;;;;;17.54;67.96;100884.16;6040178;23;20007;-84